Time;durP1;ratioP1;P1;durP2;ratioP2;P2;SDS_P1;SDS_P2;PMS_P1;PMS_P2;Temp;Humidity;BMP_temperature;BMP_pressure;BME280_temperature;BME280_humidity;BME280_pressure;Samples;Min_cycle;Max_cycle;Signal;HPM_P1;HPM_P2
2023/01/20 00:01:27;;;;;;;;;19.50;10.00;;;;;3.41;100.00;101092.56;5037444;28;45770;-81
2023/01/20 00:03:54;;;;;;;;;14.00;9.75;;;;;3.48;100.00;101099.47;5056049;28;45368;-81
2023/01/20 00:06:20;;;;;;;;;15.75;9.25;;;;;3.58;100.00;101099.53;5071903;28;45533;-81
2023/01/20 00:08:52;;;;;;;;;15.75;7.25;;;;;3.63;100.00;101105.56;5055802;28;46610;-81
2023/01/20 00:11:18;;;;;;;;;19.25;10.00;;;;;3.66;100.00;101118.47;5037844;28;45260;-81
2023/01/20 00:13:43;;;;;;;;;16.00;12.00;;;;;3.65;100.00;101121.88;5055941;28;45514;-82
2023/01/20 00:16:09;;;;;;;;;18.50;12.75;;;;;3.62;100.00;101107.31;5054909;28;59575;-81
2023/01/20 00:18:35;;;;;;;;;16.00;9.75;;;;;3.62;100.00;101119.28;5055688;28;46175;-81
2023/01/20 00:21:08;;;;;;;;;15.00;9.50;;;;;3.61;100.00;101126.16;5056352;28;46071;-81
2023/01/20 00:23:33;;;;;;;;;12.00;8.50;;;;;3.56;100.00;101127.84;5041491;28;45330;-81
2023/01/20 00:26:03;;;;;;;;;16.25;10.00;;;;;3.54;100.00;101134.69;5040609;28;66976;-81
2023/01/20 00:28:28;;;;;;;;;15.00;10.00;;;;;3.53;100.00;101137.25;5059310;28;46667;-81
2023/01/20 00:30:53;;;;;;;;;14.50;12.75;;;;;3.53;100.00;101126.94;5058184;28;64460;-82
2023/01/20 00:33:19;;;;;;;;;14.00;12.00;;;;;3.52;100.00;101133.81;5059387;28;45376;-82
2023/01/20 00:35:44;;;;;;;;;21.00;14.25;;;;;3.49;100.00;101142.41;5058724;28;57619;-82
2023/01/20 00:38:09;;;;;;;;;15.50;10.50;;;;;3.52;100.00;101143.25;5058298;28;70230;-81
2023/01/20 00:40:35;;;;;;;;;18.50;10.50;;;;;3.54;100.00;101134.69;5058822;28;45487;-81
2023/01/20 00:43:00;;;;;;;;;22.50;13.50;;;;;3.53;100.00;101138.13;5058180;28;61239;-82
2023/01/20 00:45:25;;;;;;;;;23.00;13.00;;;;;3.53;100.00;101140.72;5040873;28;45365;-82
2023/01/20 00:47:51;;;;;;;;;26.50;13.50;;;;;3.57;100.00;101152.75;5058888;28;46544;-82
2023/01/20 00:50:16;;;;;;;;;31.50;16.25;;;;;3.57;100.00;101142.44;5058176;28;67712;-81
2023/01/20 00:52:41;;;;;;;;;17.50;13.00;;;;;3.52;100.00;101145.84;5058951;28;45393;-82
2023/01/20 00:55:07;;;;;;;;;14.75;13.00;;;;;3.49;100.00;101155.28;5058127;28;63631;-82
2023/01/20 00:57:32;;;;;;;;;16.00;10.00;;;;;3.47;100.00;101153.50;5058858;28;46328;-82
2023/01/20 00:59:58;;;;;;;;;23.25;16.50;;;;;3.51;100.00;101157.84;5055913;28;45485;-82
2023/01/20 01:02:23;;;;;;;;;18.75;12.75;;;;;3.58;100.00;101159.59;5058948;28;45406;-81
2023/01/20 01:04:49;;;;;;;;;15.75;15.25;;;;;3.65;100.00;101158.78;5057998;28;62393;-81
2023/01/20 01:07:15;;;;;;;;;26.25;17.75;;;;;3.69;100.00;101157.09;5058572;28;45655;-81
2023/01/20 01:09:40;;;;;;;;;19.25;13.50;;;;;3.69;100.00;101163.09;5074481;28;45291;-81
2023/01/20 01:12:06;;;;;;;;;23.00;12.50;;;;;3.68;100.00;101168.25;5058558;28;45305;-82
2023/01/20 01:14:31;;;;;;;;;20.50;15.25;;;;;3.66;100.00;101173.41;5039757;28;45580;-82
2023/01/20 01:16:57;;;;;;;;;29.25;17.50;;;;;3.68;100.00;101175.97;5040067;28;45538;-82
2023/01/20 01:19:22;;;;;;;;;22.00;15.00;;;;;3.66;100.00;101178.53;5057399;28;66002;-82
2023/01/20 01:21:47;;;;;;;;;21.00;15.25;;;;;3.67;100.00;101194.84;5058133;28;49129;-81
2023/01/20 01:24:13;;;;;;;;;22.50;17.00;;;;;3.67;100.00;101202.56;5040425;28;45406;-81
2023/01/20 01:26:38;;;;;;;;;27.50;18.00;;;;;3.69;100.00;101195.72;5057213;28;68185;-81
2023/01/20 01:29:03;;;;;;;;;21.75;15.00;;;;;3.72;100.00;101200.91;5039315;28;54219;-81
2023/01/20 01:31:29;;;;;;;;;31.00;17.00;;;;;3.74;100.00;101198.34;5057518;28;56391;-82
2023/01/20 01:33:54;;;;;;;;;21.25;18.00;;;;;3.74;100.00;101203.47;5039072;28;45436;-82
2023/01/20 01:36:19;;;;;;;;;26.00;23.75;;;;;3.69;100.00;101204.28;5039287;28;60894;-81
2023/01/20 01:38:44;;;;;;;;;26.75;16.25;;;;;3.67;100.00;101203.41;5057302;28;58082;-81
2023/01/20 01:41:14;;;;;;;;;31.00;17.25;;;;;3.68;100.00;101209.47;5057601;28;45404;-78
2023/01/20 01:44:01;;;;;;;;;29.50;20.50;;;;;3.71;100.00;101212.03;5039698;28;45531;-82
2023/01/20 01:46:26;;;;;;;;;31.75;22.50;;;;;3.71;100.00;101217.19;5057826;28;45409;-82
2023/01/20 01:48:52;;;;;;;;;26.00;16.00;;;;;3.73;100.00;101219.78;5055119;28;45472;-81
2023/01/20 01:51:25;;;;;;;;;31.00;18.00;;;;;3.72;100.00;101228.38;5073441;28;58127;-81
2023/01/20 01:54:06;;;;;;;;;24.75;17.50;;;;;3.63;100.00;101229.16;5073831;28;45721;-82
2023/01/20 01:56:32;;;;;;;;;30.50;16.00;;;;;3.58;100.00;101230.81;5073132;28;47372;-81
2023/01/20 01:59:01;;;;;;;;;23.00;15.00;;;;;3.58;100.00;101236.81;5057682;28;45229;-81
2023/01/20 02:01:27;;;;;;;;;23.75;18.00;;;;;3.55;100.00;101236.81;5073899;28;45388;-82
2023/01/20 02:03:59;;;;;;;;;27.00;18.75;;;;;3.51;100.00;101239.34;5072808;28;57054;-81
2023/01/20 02:06:30;;;;;;;;;25.75;15.00;;;;;3.45;100.00;101243.56;5039434;28;47227;-81
2023/01/20 02:08:55;;;;;;;;;27.00;10.00;;;;;3.39;100.00;101250.41;5057788;28;45953;-81
2023/01/20 02:11:21;;;;;;;;;20.75;10.00;;;;;3.35;100.00;101243.50;5072495;28;59896;-81
2023/01/20 02:13:46;;;;;;;;;17.00;11.50;;;;;3.31;100.00;101255.50;5039142;28;58140;-81
2023/01/20 02:16:30;;;;;;;;;10.50;5.00;;;;;3.32;100.00;101257.19;5038772;28;63562;-80
2023/01/20 02:19:08;;;;;;;;;25.00;12.50;;;;;3.32;100.00;101264.91;5023149;28;45441;-81
2023/01/20 02:22:04;;;;;;;;;19.50;15.00;;;;;3.33;100.00;101265.81;5057507;28;45383;-81
2023/01/20 02:24:35;;;;;;;;;19.25;14.00;;;;;3.29;100.00;101265.75;5057556;28;45372;-81
2023/01/20 02:27:29;;;;;;;;;30.25;13.25;;;;;3.17;100.00;101268.19;5057439;28;47189;-81
2023/01/20 02:30:00;;;;;;;;;15.25;9.50;;;;;3.08;100.00;101275.81;5057346;28;45368;-81
2023/01/20 02:32:36;;;;;;;;;12.25;9.25;;;;;2.99;100.00;101274.03;5039614;28;45472;-81
2023/01/20 02:35:58;;;;;;;;;12.25;6.75;;;;;2.96;100.00;101280.84;5057563;28;45475;-81
2023/01/20 02:38:54;;;;;;;;;8.00;8.00;;;;;2.93;100.00;101288.53;4989722;28;45454;-81
2023/01/20 02:41:30;;;;;;;;;13.00;9.00;;;;;2.89;100.00;101283.34;4994883;28;45650;-81
2023/01/20 02:44:14;;;;;;;;;15.00;9.75;;;;;2.83;100.00;101291.00;4978664;28;45489;-81
2023/01/20 02:46:49;;;;;;;;;12.00;8.50;;;;;2.82;100.00;101290.97;4995395;28;45352;-81
2023/01/20 02:49:24;;;;;;;;;13.00;6.50;;;;;2.80;100.00;101290.94;4995040;28;46048;-80
2023/01/20 02:51:56;;;;;;;;;9.50;8.50;;;;;2.82;100.00;101283.25;4995313;28;45793;-81
2023/01/20 02:54:23;;;;;;;;;8.50;8.00;;;;;2.83;100.00;101283.28;4994564;28;45307;-81
2023/01/20 02:56:50;;;;;;;;;10.00;9.00;;;;;2.81;100.00;101286.69;4994911;28;45439;-80
2023/01/20 02:59:20;;;;;;;;;12.50;9.75;;;;;2.78;100.00;101292.63;4994142;28;66278;-81
2023/01/20 03:01:56;;;;;;;;;15.25;7.00;;;;;2.74;100.00;101290.88;4995112;28;45478;-81
2023/01/20 03:04:24;;;;;;;;;16.25;9.25;;;;;2.76;100.00;101291.75;4995114;28;45379;-81
2023/01/20 03:06:51;;;;;;;;;12.75;9.00;;;;;2.82;100.00;101291.84;4978441;28;45694;-81
2023/01/20 03:09:24;;;;;;;;;14.75;4.00;;;;;2.85;100.00;101296.16;5011050;28;45713;-81
2023/01/20 03:12:21;;;;;;;;;18.00;11.50;;;;;2.81;100.00;101305.53;5022226;28;45825;-81
2023/01/20 03:14:47;;;;;;;;;11.00;7.00;;;;;2.80;100.00;101313.22;4999392;28;45516;-80
2023/01/20 03:17:13;;;;;;;;;15.75;7.50;;;;;2.80;100.00;101311.50;5031846;28;45432;-80
2023/01/20 03:19:38;;;;;;;;;11.50;7.00;;;;;2.77;100.00;101311.50;5016694;28;45354;-81
2023/01/20 03:22:04;;;;;;;;;17.50;12.00;;;;;2.77;100.00;101316.63;5015529;28;45474;-80
2023/01/20 03:24:31;;;;;;;;;18.25;9.00;;;;;2.72;100.00;101326.00;5015817;28;60755;-80
2023/01/20 03:26:57;;;;;;;;;17.25;8.50;;;;;2.70;100.00;101327.69;5032112;28;45540;-80
2023/01/20 03:29:22;;;;;;;;;12.25;12.25;;;;;2.69;100.00;101326.81;5031952;28;46426;-80
2023/01/20 03:31:51;;;;;;;;;19.75;12.00;;;;;2.63;100.00;101329.28;5031160;28;62216;-81
2023/01/20 03:34:19;;;;;;;;;17.00;11.50;;;;;2.59;100.00;101329.25;5031762;28;45428;-81
2023/01/20 03:36:45;;;;;;;;;13.00;9.25;;;;;2.52;100.00;101326.56;4982281;28;45532;-80
2023/01/20 03:39:11;;;;;;;;;14.75;6.75;;;;;2.44;100.00;101330.75;5030812;28;61488;-81
2023/01/20 03:41:54;;;;;;;;;14.25;8.50;;;;;2.34;100.00;101326.34;5031600;28;45321;-80
2023/01/20 03:44:37;;;;;;;;;13.50;9.50;;;;;2.30;100.00;101324.56;5025838;28;45696;-81
2023/01/20 03:47:15;;;;;;;;;15.00;11.00;;;;;2.29;100.00;101333.97;5036075;28;45439;-81
2023/01/20 03:49:50;;;;;;;;;16.50;8.75;;;;;2.33;100.00;101337.47;5051798;28;45398;-81
2023/01/20 03:52:24;;;;;;;;;20.00;10.00;;;;;2.38;100.00;101337.50;5001197;28;46205;-81
2023/01/20 03:54:53;;;;;;;;;21.50;12.50;;;;;2.41;100.00;101342.69;5036133;28;45337;-81
2023/01/20 03:57:23;;;;;;;;;20.00;12.00;;;;;2.42;100.00;101344.44;5051164;28;45314;-80
2023/01/20 03:59:50;;;;;;;;;18.50;13.00;;;;;2.42;100.00;101354.72;5044192;28;47206;-81
2023/01/20 04:02:15;;;;;;;;;17.50;10.00;;;;;2.43;100.00;101351.28;5038011;28;45906;-81
2023/01/20 04:04:42;;;;;;;;;19.00;12.50;;;;;2.46;100.00;101354.78;5038243;28;45448;-81
2023/01/20 04:07:12;;;;;;;;;13.75;11.50;;;;;2.50;100.00;101353.09;5037793;28;46110;-81
2023/01/20 04:09:41;;;;;;;;;15.50;12.25;;;;;2.48;100.00;101358.22;5071403;28;45498;-81
2023/01/20 04:12:07;;;;;;;;;24.50;15.50;;;;;2.49;100.00;101354.81;5037958;28;45405;-81
2023/01/20 04:14:35;;;;;;;;;21.25;12.75;;;;;2.49;100.00;101364.25;5055254;28;58803;-81
2023/01/20 04:17:02;;;;;;;;;23.75;14.50;;;;;2.50;100.00;101371.09;5037241;28;61480;-81
2023/01/20 04:19:27;;;;;;;;;20.00;9.25;;;;;2.49;100.00;101369.38;5037871;28;46380;-80
2023/01/20 04:22:16;;;;;;;;;17.00;9.00;;;;;2.52;100.00;101374.56;5054800;28;64840;-81
2023/01/20 04:24:54;;;;;;;;;12.50;9.00;;;;;2.58;100.00;101373.78;5037916;28;45302;-81
2023/01/20 04:33:11;;;;;;;;;20.25;12.25;;;;;2.59;100.00;101384.09;5053659;22;46028;-80
2023/01/20 04:35:36;;;;;;;;;18.50;13.50;;;;;2.56;100.00;101380.59;4992629;28;57382;-81
2023/01/20 04:38:02;;;;;;;;;14.00;9.75;;;;;2.51;100.00;101385.69;4993086;28;67502;-81
2023/01/20 04:40:27;;;;;;;;;16.75;10.00;;;;;2.46;100.00;101383.03;4994441;28;46202;-81
2023/01/20 04:42:53;;;;;;;;;17.50;7.50;;;;;2.46;100.00;101387.31;4994344;28;68377;-80
2023/01/20 04:45:18;;;;;;;;;19.25;12.25;;;;;2.49;100.00;101388.22;4994429;28;45401;-81
2023/01/20 04:47:43;;;;;;;;;19.50;14.00;;;;;2.48;100.00;101390.78;4994730;28;59084;-81
2023/01/20 04:50:10;;;;;;;;;14.75;12.50;;;;;2.43;100.00;101388.13;4994896;28;46119;-81
2023/01/20 04:52:35;;;;;;;;;24.50;15.00;;;;;2.40;100.00;101392.38;4995392;28;45362;-81
2023/01/20 04:55:01;;;;;;;;;17.00;13.00;;;;;2.37;100.00;101397.47;4995467;28;45604;-81
2023/01/20 04:57:26;;;;;;;;;17.00;10.00;;;;;2.36;100.00;101393.16;4994249;28;45590;-81
2023/01/20 04:59:52;;;;;;;;;18.00;15.00;;;;;2.35;100.00;101396.56;4995350;28;46047;-80
2023/01/20 05:02:17;;;;;;;;;23.00;15.50;;;;;2.36;100.00;101409.44;4994345;28;67237;-80
2023/01/20 05:04:44;;;;;;;;;19.75;14.50;;;;;2.37;100.00;101407.75;4994377;28;57763;-80
2023/01/20 05:07:09;;;;;;;;;23.00;13.00;;;;;2.35;100.00;101410.28;5010329;28;45417;-80
2023/01/20 05:09:34;;;;;;;;;19.75;13.25;;;;;2.36;100.00;101414.59;4997857;28;46187;-81
2023/01/20 05:11:59;;;;;;;;;21.00;16.25;;;;;2.38;100.00;101412.03;4997825;28;68572;-80
2023/01/20 05:14:25;;;;;;;;;24.00;18.00;;;;;2.38;100.00;101417.16;4997340;28;45457;-80
2023/01/20 05:16:50;;;;;;;;;24.25;15.25;;;;;2.35;100.00;101424.84;4997647;28;66708;-80
2023/01/20 05:19:15;;;;;;;;;20.00;14.50;;;;;2.32;100.00;101429.09;4997199;28;69794;-80
2023/01/20 05:21:41;;;;;;;;;28.00;16.50;;;;;2.38;100.00;101428.31;4998405;28;45391;-81
2023/01/20 05:24:07;;;;;;;;;29.50;20.00;;;;;2.41;100.00;101428.34;4998424;28;45431;-80
2023/01/20 05:26:33;;;;;;;;;26.00;20.00;;;;;2.36;100.00;101435.16;4998318;28;45505;-81
2023/01/20 05:28:58;;;;;;;;;19.00;14.50;;;;;2.27;100.00;101433.28;4998391;28;46436;-80
2023/01/20 05:31:24;;;;;;;;;16.50;13.00;;;;;2.30;100.00;101427.31;4996950;28;45469;-80
2023/01/20 05:33:49;;;;;;;;;23.50;18.75;;;;;2.34;100.00;101429.13;4996400;28;53759;-81
2023/01/20 05:36:15;;;;;;;;;23.75;17.50;;;;;2.38;100.00;101441.16;4997900;28;58378;-81
2023/01/20 05:38:40;;;;;;;;;21.25;12.50;;;;;2.39;100.00;101439.47;4997706;28;57294;-81
2023/01/20 05:41:07;;;;;;;;;23.00;17.00;;;;;2.39;100.00;101450.59;4997597;28;63171;-81
2023/01/20 05:43:32;;;;;;;;;26.00;18.75;;;;;2.37;100.00;101447.13;4998423;28;45467;-81
2023/01/20 05:45:57;;;;;;;;;18.75;13.00;;;;;2.42;100.00;101454.94;4995959;28;59833;-80
2023/01/20 05:48:23;;;;;;;;;22.00;16.00;;;;;2.46;100.00;101444.72;4980163;28;48314;-80
2023/01/20 05:50:49;;;;;;;;;18.25;13.50;;;;;2.42;100.00;101460.06;4998089;28;45426;-81
2023/01/20 05:53:14;;;;;;;;;14.50;14.50;;;;;2.46;100.00;101457.56;4998223;28;45167;-81
2023/01/20 05:55:40;;;;;;;;;21.50;16.00;;;;;2.49;100.00;101454.19;4998224;28;45402;-80
2023/01/20 05:58:06;;;;;;;;;25.50;12.00;;;;;2.50;100.00;101459.34;4997492;28;58145;-80
2023/01/20 06:00:31;;;;;;;;;22.75;15.50;;;;;2.47;100.00;101456.72;4997551;28;45774;-80
2023/01/20 06:02:57;;;;;;;;;18.00;16.50;;;;;2.43;100.00;101454.94;4997927;28;45376;-81
2023/01/20 06:05:23;;;;;;;;;25.00;14.50;;;;;2.38;100.00;101451.44;4996571;28;45597;-80
2023/01/20 06:07:48;;;;;;;;;21.00;15.75;;;;;2.37;100.00;101461.69;4999373;28;45344;-81
2023/01/20 06:10:15;;;;;;;;;23.25;13.50;;;;;2.31;100.00;101462.47;5017615;28;45309;-81
2023/01/20 06:12:40;;;;;;;;;20.25;10.50;;;;;2.19;100.00;101457.09;4999852;28;45390;-81
2023/01/20 06:15:06;;;;;;;;;19.00;15.00;;;;;2.05;100.00;101455.16;5017251;28;45422;-80
2023/01/20 06:17:32;;;;;;;;;23.00;12.25;;;;;1.97;100.00;101454.19;4999634;28;46320;-79
2023/01/20 06:19:57;;;;;;;;;19.00;10.50;;;;;1.96;100.00;101461.84;5016576;28;54837;-81
2023/01/20 06:22:23;;;;;;;;;27.00;18.00;;;;;1.96;100.00;101472.97;5017484;28;45603;-80
2023/01/20 06:24:48;;;;;;;;;24.75;13.75;;;;;1.94;100.00;101464.38;4999639;28;45383;-78
2023/01/20 06:27:13;;;;;;;;;24.25;15.75;;;;;1.98;100.00;101467.88;5017072;28;46625;-79
2023/01/20 06:29:39;;;;;;;;;24.00;14.00;;;;;2.00;100.00;101468.75;5016280;28;62326;-78
2023/01/20 06:32:04;;;;;;;;;21.50;11.00;;;;;2.05;100.00;101456.88;5016659;28;52820;-78
2023/01/20 06:34:30;;;;;;;;;22.00;15.25;;;;;2.12;100.00;101467.28;5006911;28;45392;-79
2023/01/20 06:36:55;;;;;;;;;24.00;15.50;;;;;2.23;100.00;101466.59;4996556;28;63177;-77
2023/01/20 06:39:21;;;;;;;;;20.00;15.00;;;;;2.30;100.00;101469.31;4997511;28;45582;-77
2023/01/20 06:41:46;;;;;;;;;23.50;14.75;;;;;2.32;100.00;101464.16;4996671;28;63001;-77
2023/01/20 06:44:12;;;;;;;;;19.00;8.50;;;;;2.33;100.00;101468.47;4996594;28;56564;-77
2023/01/20 06:46:37;;;;;;;;;26.50;10.00;;;;;2.39;100.00;101483.13;4995972;28;45976;-77
2023/01/20 06:49:02;;;;;;;;;22.00;14.50;;;;;2.43;100.00;101480.63;4996990;28;49909;-77
2023/01/20 06:51:29;;;;;;;;;17.50;12.25;;;;;2.42;100.00;101483.19;4997160;28;45486;-77
2023/01/20 06:53:55;;;;;;;;;20.00;10.75;;;;;2.39;100.00;101485.72;4997117;28;45361;-77
2023/01/20 06:56:20;;;;;;;;;21.50;18.00;;;;;2.38;100.00;101481.41;4997033;28;46280;-77
2023/01/20 06:58:46;;;;;;;;;25.25;18.00;;;;;2.36;100.00;101475.38;4996700;28;45304;-76
2023/01/20 07:01:12;;;;;;;;;18.50;14.50;;;;;2.31;100.00;101483.88;4997163;28;45283;-76
2023/01/20 07:03:38;;;;;;;;;14.75;9.50;;;;;2.30;100.00;101486.41;4995718;28;45530;-77
2023/01/20 07:06:13;;;;;;;;;20.00;11.50;;;;;2.34;100.00;101495.91;4996847;28;45683;-77
2023/01/20 07:08:38;;;;;;;;;24.25;16.00;;;;;2.36;100.00;101499.38;4995716;28;45900;-77
2023/01/20 07:11:04;;;;;;;;;18.25;14.50;;;;;2.40;100.00;101502.88;4996564;28;56432;-76
2023/01/20 07:13:29;;;;;;;;;18.75;14.00;;;;;2.42;100.00;101503.75;4996635;28;45426;-77
2023/01/20 07:15:54;;;;;;;;;19.25;14.75;;;;;2.47;100.00;101504.69;4995836;28;70720;-77
2023/01/20 07:18:20;;;;;;;;;22.00;16.50;;;;;2.51;100.00;101514.19;4995869;28;69555;-77
2023/01/20 07:20:45;;;;;;;;;16.25;15.50;;;;;2.49;100.00;101516.72;4996816;28;45602;-76
2023/01/20 07:23:10;;;;;;;;;19.00;15.00;;;;;2.51;100.00;101519.31;4996829;28;45486;-77
2023/01/20 07:25:37;;;;;;;;;28.25;14.00;;;;;2.51;100.00;101516.75;4996060;28;63087;-77
2023/01/20 07:28:03;;;;;;;;;30.25;16.75;;;;;2.50;100.00;101528.72;4996175;28;45400;-76
2023/01/20 07:30:29;;;;;;;;;20.00;17.50;;;;;2.48;100.00;101521.84;4996080;28;45357;-77
2023/01/20 07:32:54;;;;;;;;;19.00;13.00;;;;;2.47;100.00;101531.25;4995402;28;66085;-77
2023/01/20 07:35:19;;;;;;;;;23.50;18.25;;;;;2.46;100.00;101529.50;4995536;28;64098;-76
2023/01/20 07:37:44;;;;;;;;;16.50;16.00;;;;;2.43;100.00;101524.31;4995770;28;63124;-77
2023/01/20 07:40:10;;;;;;;;;21.75;17.25;;;;;2.43;100.00;101520.88;4995754;28;63235;-76
2023/01/20 07:42:37;;;;;;;;;19.00;15.00;;;;;2.45;100.00;101539.75;4996197;28;45362;-77
2023/01/20 07:45:02;;;;;;;;;18.25;15.25;;;;;2.46;100.00;101542.38;4996267;28;46525;-77
2023/01/20 07:47:28;;;;;;;;;18.50;17.25;;;;;2.47;100.00;101544.09;4996245;28;45302;-78
2023/01/20 07:49:53;;;;;;;;;29.25;19.00;;;;;2.53;100.00;101551.06;4995530;28;56051;-79
2023/01/20 07:52:18;;;;;;;;;22.50;15.75;;;;;2.56;100.00;101553.66;4995903;28;61947;-77
2023/01/20 07:54:43;;;;;;;;;24.00;15.25;;;;;2.61;100.00;101548.63;4987761;28;63772;-77
2023/01/20 07:57:09;;;;;;;;;25.75;17.50;;;;;2.66;100.00;101542.72;4993665;28;66951;-77
2023/01/20 07:59:34;;;;;;;;;21.25;17.00;;;;;2.71;100.00;101558.19;4995092;28;45350;-76
2023/01/20 08:01:59;;;;;;;;;18.00;18.00;;;;;2.73;100.00;101551.41;4987308;28;66517;-77
2023/01/20 08:04:25;;;;;;;;;29.00;17.50;;;;;2.78;100.00;101559.16;4974311;28;69724;-77
2023/01/20 08:06:50;;;;;;;;;24.75;18.00;;;;;2.86;100.00;101549.84;4973099;28;63193;-77
2023/01/20 08:09:16;;;;;;;;;28.00;19.00;;;;;2.89;100.00;101553.34;4974238;28;64532;-77
2023/01/20 08:11:41;;;;;;;;;17.00;14.50;;;;;2.96;100.00;101562.03;4974727;28;45382;-77
2023/01/20 08:14:06;;;;;;;;;30.00;15.50;;;;;2.98;100.00;101562.94;4973636;28;45473;-77
2023/01/20 08:16:32;;;;;;;;;20.50;14.00;;;;;2.98;100.00;101559.50;4972673;28;68725;-77
2023/01/20 08:18:57;;;;;;;;;24.50;20.25;;;;;3.02;100.00;101566.41;4974521;28;45425;-77
2023/01/20 08:21:25;;;;;;;;;26.75;17.00;;;;;3.06;100.00;101571.59;4992767;28;45571;-76
2023/01/20 08:23:51;;;;;;;;;15.00;15.00;;;;;3.10;100.00;101576.00;4994328;28;46525;-76
2023/01/20 08:26:16;;;;;;;;;19.50;15.50;;;;;3.07;100.00;101577.66;4993063;28;45630;-77
2023/01/20 08:28:41;;;;;;;;;23.00;13.00;;;;;3.07;100.00;101586.22;4992655;28;45437;-76
2023/01/20 08:31:14;;;;;;;;;26.00;15.00;;;;;3.10;100.00;101585.38;4992166;28;64711;-76
2023/01/20 08:33:41;;;;;;;;;24.50;15.00;;;;;3.12;100.00;101582.84;4980415;28;46265;-76
2023/01/20 08:36:15;;;;;;;;;15.00;12.25;;;;;3.15;100.00;101575.19;4979182;28;45918;-77
2023/01/20 08:38:41;;;;;;;;;20.50;15.25;;;;;3.14;100.00;101576.91;4992313;28;45593;-77
2023/01/20 08:41:12;;;;;;;;;21.25;16.50;;;;;3.16;100.00;101566.59;4990490;28;45713;-77
2023/01/20 08:43:37;;;;;;;;;20.75;15.25;;;;;3.15;100.00;101570.91;4992061;28;45769;-77
2023/01/20 08:46:06;;;;;;;;;20.00;16.25;;;;;3.17;100.00;101581.22;4995629;28;46101;-77
2023/01/20 08:48:32;;;;;;;;;18.25;14.50;;;;;3.16;100.00;101580.34;4997595;28;45420;-77
2023/01/20 08:50:57;;;;;;;;;32.50;18.00;;;;;3.23;100.00;101578.72;4997718;28;45599;-77
2023/01/20 08:53:23;;;;;;;;;17.75;13.00;;;;;3.29;100.00;101591.69;4995881;28;46472;-77
2023/01/20 08:55:58;;;;;;;;;18.00;12.50;;;;;3.34;100.00;101592.59;4996947;28;45295;-78
2023/01/20 08:58:24;;;;;;;;;21.00;14.50;;;;;3.34;100.00;101596.91;4980104;28;45796;-77
2023/01/20 09:00:50;;;;;;;;;18.00;16.50;;;;;3.34;100.00;101595.19;4995605;28;45541;-78
2023/01/20 09:03:15;;;;;;;;;11.50;8.50;;;;;3.37;100.00;101607.25;4995946;28;46114;-77
2023/01/20 09:05:41;;;;;;;;;18.75;15.25;;;;;3.40;100.00;101607.28;4994387;28;45767;-77
2023/01/20 09:08:06;;;;;;;;;14.00;12.00;;;;;3.40;100.00;101610.72;4996037;28;45429;-77
2023/01/20 09:10:32;;;;;;;;;26.75;15.00;;;;;3.42;100.00;101610.75;4996389;28;55320;-77
2023/01/20 09:12:57;;;;;;;;;21.50;18.00;;;;;3.40;100.00;101610.72;4997023;28;46326;-78
2023/01/20 09:15:23;;;;;;;;;20.50;13.75;;;;;3.41;100.00;101614.16;4996351;28;65804;-77
2023/01/20 09:17:48;;;;;;;;;13.75;11.00;;;;;3.53;100.00;101609.22;4996297;28;61641;-77
2023/01/20 09:20:13;;;;;;;;;14.75;11.50;;;;;3.68;100.00;101613.69;4996278;28;62841;-77
2023/01/20 09:22:39;;;;;;;;;19.00;12.00;;;;;3.73;100.00;101608.59;4996774;28;45647;-77
2023/01/20 09:25:06;;;;;;;;;14.50;12.25;;;;;3.79;100.00;101611.25;4996983;28;45397;-78
2023/01/20 09:27:31;;;;;;;;;22.25;15.75;;;;;3.85;100.00;101611.34;4994949;28;45674;-78
2023/01/20 09:29:57;;;;;;;;;12.25;12.25;;;;;3.88;100.00;101617.41;4991300;28;67312;-77
2023/01/20 09:32:22;;;;;;;;;12.75;10.00;;;;;3.92;100.00;101625.16;4989612;28;65900;-77
2023/01/20 09:34:48;;;;;;;;;13.00;12.00;;;;;3.91;100.00;101621.72;4990813;28;68181;-77
2023/01/20 09:45:46;;;;;;;;;12.50;9.25;;;;;4.00;100.00;101632.13;4991490;28;45852;-76
2023/01/20 09:54:13;;;;;;;;;15.75;8.75;;;;;4.13;100.00;101632.28;4991285;28;45681;-77
2023/01/20 09:56:43;;;;;;;;;11.50;7.25;;;;;4.07;100.00;101639.09;4993107;28;45419;-78
2023/01/20 09:59:19;;;;;;;;;15.00;12.00;;;;;4.02;100.00;101640.75;4988901;28;45416;-78
2023/01/20 10:01:47;;;;;;;;;7.75;7.00;;;;;4.03;100.00;101628.72;4970825;28;45685;-78
2023/01/20 10:04:36;;;;;;;;;9.25;8.00;;;;;4.11;100.00;101634.84;4982845;28;46591;-78
2023/01/20 10:07:07;;;;;;;;;14.25;10.50;;;;;4.26;100.00;101637.59;4989640;28;45751;-76
2023/01/20 10:09:37;;;;;;;;;16.00;8.25;;;;;4.33;100.00;101650.53;4989488;28;45429;-77
2023/01/20 10:12:16;;;;;;;;;8.75;7.00;;;;;4.42;100.00;101648.97;4995270;28;45524;-77
2023/01/20 10:14:45;;;;;;;;;16.25;12.25;;;;;4.60;100.00;101655.16;4978067;28;45429;-77
2023/01/20 10:17:11;;;;;;;;;15.25;9.25;;;;;4.75;100.00;101652.72;4991690;28;45936;-78
2023/01/20 10:19:43;;;;;;;;;7.33;5.33;;;;;4.81;100.00;101652.78;4995316;28;45738;-77
2023/01/20 10:22:18;;;;;;;;;7.00;5.00;;;;;4.89;100.00;101654.59;4993296;28;45604;-77
2023/01/20 10:24:54;;;;;;;;;11.25;7.50;;;;;5.02;100.00;101656.41;5023206;28;29396;-77
2023/01/20 10:27:26;;;;;;;;;10.50;6.00;;;;;5.08;100.00;101656.47;5009801;28;28492;-77
2023/01/20 10:29:57;;;;;;;;;8.00;5.00;;;;;5.16;100.00;101660.00;5009101;28;28518;-76
2023/01/20 10:33:09;;;;;;;;;13.00;6.75;;;;;5.31;100.00;101653.19;5009730;28;28902;-77
2023/01/20 10:35:37;;;;;;;;;7.50;7.50;;;;;5.55;100.00;101662.84;5007397;28;30723;-75
2023/01/20 10:38:07;;;;;;;;;7.75;5.50;;;;;5.56;100.00;101655.09;4993593;28;45967;-77
2023/01/20 10:40:41;;;;;;;;;7.75;5.00;;;;;5.53;100.00;101656.78;4993365;28;45623;-77
2023/01/20 10:43:12;;;;;;;;;13.00;7.00;;;;;5.60;100.00;101663.72;4993644;28;45461;-77
2023/01/20 10:45:55;;;;;;;;;7.00;4.00;;;;;5.66;100.00;101665.50;4993657;28;46596;-76
2023/01/20 10:48:45;;;;;;;;;7.75;4.00;;;;;5.80;100.00;101654.38;4990759;28;45927;-76
2023/01/20 10:51:26;;;;;;;;;8.00;4.75;;;;;6.04;100.00;101662.31;4981209;28;45406;-76
2023/01/20 10:54:20;;;;;;;;;7.00;4.75;;;;;6.22;100.00;101654.59;4995059;28;45584;-77
2023/01/20 10:56:52;;;;;;;;;7.00;5.00;;;;;6.39;100.00;101655.53;4992702;28;46359;-76
2023/01/20 10:59:33;;;;;;;;;8.00;5.00;;;;;6.52;100.00;101651.25;4994568;28;46134;-76
2023/01/20 11:02:03;;;;;;;;;7.25;4.75;;;;;6.69;100.00;101655.63;4995075;28;45438;-77
2023/01/20 11:04:30;;;;;;;;;7.75;6.50;;;;;6.76;100.00;101658.22;4988608;28;45526;-76
2023/01/20 11:06:59;;;;;;;;;11.00;5.00;;;;;6.74;100.00;101652.16;4991163;28;45622;-76
2023/01/20 11:09:38;;;;;;;;;7.50;6.00;;;;;6.64;100.00;101654.72;4993704;28;45474;-77
2023/01/20 11:12:11;;;;;;;;;9.25;7.50;;;;;6.51;100.00;101657.28;4994884;28;45532;-76
2023/01/20 11:14:37;;;;;;;;;7.25;5.00;;;;;6.41;100.00;101652.97;4991887;28;45521;-76
2023/01/20 11:17:06;;;;;;;;;8.00;5.00;;;;;6.45;100.00;101649.50;4986302;28;45970;-76
2023/01/20 11:19:57;;;;;;;;;9.00;7.50;;;;;6.63;100.00;101643.53;4994457;28;45916;-77
2023/01/20 11:22:28;;;;;;;;;5.50;5.00;;;;;7.34;100.00;101646.16;4984462;28;61398;-77
2023/01/20 11:24:57;;;;;;;;;6.50;5.50;;;;;8.78;100.00;101643.88;4994647;28;45440;-77
2023/01/20 11:27:27;;;;;;;;;8.00;5.00;;;;;10.37;100.00;101645.75;4988675;28;47900;-77
2023/01/20 11:30:02;;;;;;;;;5.50;5.25;;;;;11.88;100.00;101632.81;4989303;28;45889;-78
2023/01/20 11:32:31;;;;;;;;;6.25;4.50;;;;;13.24;100.00;101641.06;4991976;28;45559;-77
2023/01/20 11:34:57;;;;;;;;;6.00;5.00;;;;;13.18;100.00;101640.31;4990829;28;45671;-77
2023/01/20 11:37:25;;;;;;;;;5.00;3.50;;;;;12.31;100.00;101647.59;4994160;28;45439;-77
2023/01/20 11:39:59;;;;;;;;;6.50;5.00;;;;;11.66;100.00;101645.41;4994886;28;45605;-77